Time;durP1;ratioP1;P1;durP2;ratioP2;P2;SDS_P1;SDS_P2;PMS_P1;PMS_P2;Temp;Humidity;BMP_temperature;BMP_pressure;BME280_temperature;BME280_humidity;BME280_pressure;Samples;Min_cycle;Max_cycle;Signal;HPM_P1;HPM_P2
2022/07/25 00:00:42;;;;;;;5.60;5.10;;;25.10;99.90;;;;;;4915356;29;20491;-65
2022/07/25 00:03:07;;;;;;;5.23;4.73;;;25.00;99.90;;;;;;4915154;29;20395;-65
2022/07/25 00:05:33;;;;;;;7.43;5.28;;;25.00;99.90;;;;;;4933061;29;20688;-65
2022/07/25 00:07:58;;;;;;;5.80;5.00;;;24.90;99.90;;;;;;4933597;29;20482;-65
2022/07/25 00:10:24;;;;;;;6.47;5.18;;;24.90;99.90;;;;;;4917688;29;20411;-65
2022/07/25 00:12:50;;;;;;;6.50;5.33;;;24.90;99.90;;;;;;4936234;29;20407;-65
2022/07/25 00:15:15;;;;;;;6.47;5.20;;;24.90;99.90;;;;;;4917602;29;20395;-65
2022/07/25 00:17:41;;;;;;;6.10;5.50;;;24.90;99.90;;;;;;4934482;29;20418;-65
2022/07/25 00:20:07;;;;;;;6.47;5.20;;;24.80;99.90;;;;;;4917799;29;21021;-65
2022/07/25 00:22:33;;;;;;;6.20;5.32;;;24.80;99.90;;;;;;4932247;29;20768;-65
2022/07/25 00:24:59;;;;;;;6.43;5.07;;;24.80;99.90;;;;;;4932497;29;20419;-65
2022/07/25 00:27:26;;;;;;;5.67;5.17;;;24.80;99.90;;;;;;4932101;29;20494;-65
2022/07/25 00:29:51;;;;;;;5.73;5.13;;;24.70;99.90;;;;;;4916449;29;20409;-65
2022/07/25 00:32:17;;;;;;;5.53;5.00;;;24.70;99.90;;;;;;4932776;29;20494;-65
2022/07/25 00:34:43;;;;;;;5.85;5.35;;;24.60;99.90;;;;;;4915361;29;20460;-65
2022/07/25 00:37:08;;;;;;;5.60;5.07;;;24.60;99.90;;;;;;4914208;29;20574;-65
2022/07/25 00:39:34;;;;;;;5.88;5.28;;;24.50;99.90;;;;;;4913502;29;20522;-65
2022/07/25 00:41:59;;;;;;;6.57;5.33;;;24.50;99.90;;;;;;4913229;29;20407;-65
2022/07/25 00:44:28;;;;;;;6.60;5.30;;;24.40;99.90;;;;;;4913908;29;20416;-65
2022/07/25 00:46:55;;;;;;;5.63;5.10;;;24.40;99.90;;;;;;4913020;29;20388;-65
2022/07/25 00:49:22;;;;;;;5.70;5.03;;;24.30;99.90;;;;;;4914688;29;20391;-65
2022/07/25 00:51:48;;;;;;;6.07;5.25;;;24.30;99.90;;;;;;4915485;29;20392;-65
2022/07/25 00:54:14;;;;;;;5.75;5.25;;;24.30;99.90;;;;;;4914628;29;20448;-65
2022/07/25 00:56:40;;;;;;;5.88;5.38;;;24.30;99.90;;;;;;4914734;29;20422;-65
2022/07/25 00:59:06;;;;;;;6.25;5.60;;;24.30;99.90;;;;;;4914825;29;20456;-65
2022/07/25 01:01:32;;;;;;;5.60;5.10;;;24.20;99.90;;;;;;4914119;29;20454;-65
2022/07/25 01:03:57;;;;;;;5.78;5.18;;;24.20;99.90;;;;;;4931192;29;20514;-65
2022/07/25 01:06:24;;;;;;;5.73;5.13;;;24.20;99.90;;;;;;4916379;29;20402;-65
2022/07/25 01:08:50;;;;;;;7.15;5.22;;;24.10;99.90;;;;;;4917322;29;20855;-65
2022/07/25 01:11:16;;;;;;;6.20;5.35;;;24.10;99.90;;;;;;4918434;29;20429;-65
2022/07/25 01:13:41;;;;;;;6.27;5.17;;;24.10;99.90;;;;;;4916594;29;20623;-65
2022/07/25 01:16:07;;;;;;;7.72;5.10;;;24.10;99.90;;;;;;4914983;29;20407;-65
2022/07/25 01:18:33;;;;;;;8.30;5.10;;;24.10;99.90;;;;;;4931532;29;20491;-65
2022/07/25 01:20:59;;;;;;;6.43;5.50;;;24.00;99.90;;;;;;4914584;29;20410;-65
2022/07/25 01:23:25;;;;;;;5.70;5.10;;;23.90;99.90;;;;;;4930470;29;20396;-65
2022/07/25 01:25:51;;;;;;;5.72;5.22;;;23.80;99.90;;;;;;4914910;29;20411;-65
2022/07/25 01:28:17;;;;;;;6.20;5.47;;;23.80;99.90;;;;;;4915924;29;20406;-65
2022/07/25 01:30:43;;;;;;;6.90;5.45;;;23.80;99.90;;;;;;4931173;29;20399;-67
2022/07/25 01:33:09;;;;;;;6.03;4.95;;;23.80;99.90;;;;;;4914827;29;20408;-67
2022/07/25 01:35:34;;;;;;;6.20;5.30;;;23.80;99.90;;;;;;4914243;29;20415;-67
2022/07/25 01:38:00;;;;;;;6.10;5.07;;;23.80;99.90;;;;;;4931858;29;20693;-67
2022/07/25 01:40:25;;;;;;;5.88;4.93;;;23.80;99.90;;;;;;4915399;29;20438;-67
2022/07/25 01:42:51;;;;;;;6.13;5.43;;;23.80;99.90;;;;;;4916826;29;20426;-65
2022/07/25 01:45:17;;;;;;;6.00;5.40;;;23.80;99.90;;;;;;4932562;29;20418;-65
2022/07/25 01:47:42;;;;;;;5.28;4.78;;;23.80;99.90;;;;;;4914707;29;20399;-65
2022/07/25 01:50:08;;;;;;;6.20;5.33;;;23.70;99.90;;;;;;4931243;29;20403;-65
2022/07/25 01:52:35;;;;;;;5.88;5.20;;;23.70;99.90;;;;;;4930195;29;20395;-67
2022/07/25 01:55:01;;;;;;;6.55;5.50;;;23.70;99.90;;;;;;4916328;29;20862;-67
2022/07/25 01:57:26;;;;;;;6.17;4.43;;;23.70;99.90;;;;;;4932083;29;20415;-67
2022/07/25 01:59:52;;;;;;;5.40;4.90;;;23.60;99.90;;;;;;4915768;29;20888;-65
2022/07/25 02:02:17;;;;;;;5.70;5.10;;;23.60;99.90;;;;;;4914120;29;20392;-65
2022/07/25 02:04:43;;;;;;;6.90;5.00;;;23.50;99.90;;;;;;4913729;29;20585;-65
2022/07/25 02:07:08;;;;;;;6.00;5.20;;;23.50;99.90;;;;;;4913737;29;20528;-67
2022/07/25 02:09:34;;;;;;;6.15;5.00;;;23.50;99.90;;;;;;4916202;29;20411;-65
2022/07/25 02:12:00;;;;;;;5.90;5.30;;;23.40;99.90;;;;;;4933559;29;20414;-65
2022/07/25 02:14:25;;;;;;;6.15;5.20;;;23.40;99.90;;;;;;4937098;29;20485;-65
2022/07/25 02:16:51;;;;;;;9.00;5.50;;;23.40;99.90;;;;;;4918934;29;20411;-65
2022/07/25 02:19:16;;;;;;;6.47;4.72;;;23.40;99.90;;;;;;4919060;29;20415;-65
2022/07/25 02:21:42;;;;;;;6.03;4.90;;;23.30;99.90;;;;;;4935405;29;20708;-65
2022/07/25 02:24:07;;;;;;;6.20;4.70;;;23.30;99.90;;;;;;4934776;29;20680;-65
2022/07/25 02:26:33;;;;;;;4.90;4.47;;;23.20;99.90;;;;;;4917402;29;20503;-65
2022/07/25 02:28:59;;;;;;;5.15;4.47;;;23.10;99.90;;;;;;4918775;29;20383;-65
2022/07/25 02:31:24;;;;;;;4.60;4.20;;;23.10;99.90;;;;;;4919146;29;20403;-65
2022/07/25 02:33:50;;;;;;;4.75;4.32;;;23.10;99.90;;;;;;4918906;29;20414;-65
2022/07/25 02:36:16;;;;;;;6.88;4.60;;;23.10;99.90;;;;;;4920863;29;20399;-65
2022/07/25 02:38:41;;;;;;;5.90;4.10;;;23.00;99.90;;;;;;4922329;29;20446;-65
2022/07/25 02:41:07;;;;;;;5.25;3.78;;;22.90;99.90;;;;;;4922711;29;20399;-65
2022/07/25 02:43:33;;;;;;;5.57;4.15;;;23.00;99.90;;;;;;4940000;29;20403;-65
2022/07/25 02:45:58;;;;;;;6.77;4.03;;;23.00;99.90;;;;;;4939370;29;20415;-65
2022/07/25 02:48:24;;;;;;;4.88;3.72;;;23.00;99.90;;;;;;4920833;29;20407;-67
2022/07/25 02:50:50;;;;;;;4.23;3.83;;;22.90;99.90;;;;;;4919604;29;20403;-67
2022/07/25 02:53:15;;;;;;;5.95;3.75;;;22.90;99.90;;;;;;4920346;29;20409;-67
2022/07/25 02:55:41;;;;;;;3.97;3.65;;;22.90;99.90;;;;;;4938751;29;20669;-67
2022/07/25 02:58:06;;;;;;;4.40;3.60;;;22.90;99.90;;;;;;4920887;29;20704;-67
2022/07/25 03:00:32;;;;;;;3.57;3.27;;;22.80;99.90;;;;;;4921233;29;20399;-67
2022/07/25 03:02:57;;;;;;;5.47;3.70;;;22.80;99.90;;;;;;4936461;29;20407;-67
2022/07/25 03:05:23;;;;;;;3.75;3.42;;;22.80;99.90;;;;;;4918239;29;20426;-67
2022/07/25 03:07:49;;;;;;;4.37;3.40;;;22.80;99.90;;;;;;4918218;29;20406;-67
2022/07/25 03:10:14;;;;;;;5.68;3.67;;;22.80;99.90;;;;;;4936516;29;20609;-65
2022/07/25 03:12:41;;;;;;;5.40;3.87;;;22.70;99.90;;;;;;4920469;29;20816;-65
2022/07/25 03:15:08;;;;;;;7.13;3.53;;;22.70;99.90;;;;;;4918643;29;20608;-66
2022/07/25 03:17:34;;;;;;;4.05;3.35;;;22.70;99.90;;;;;;4918881;29;20407;-67
2022/07/25 03:20:00;;;;;;;4.75;3.22;;;22.70;99.90;;;;;;4918052;29;20471;-67
2022/07/25 03:22:25;;;;;;;3.63;3.10;;;22.70;99.90;;;;;;4918168;29;20424;-67
2022/07/25 03:24:52;;;;;;;4.03;3.60;;;22.70;99.90;;;;;;4920751;29;20424;-67
2022/07/25 03:27:18;;;;;;;4.80;3.15;;;22.70;99.90;;;;;;4937448;29;20740;-67
2022/07/25 03:29:44;;;;;;;6.82;3.45;;;22.50;99.90;;;;;;4936863;29;20474;-67
2022/07/25 03:32:10;;;;;;;4.80;3.40;;;22.50;99.90;;;;;;4919573;29;20787;-65
2022/07/25 03:34:48;;;;;;;5.60;2.90;;;22.40;99.90;;;;;;4920714;29;20404;-65
2022/07/25 03:37:14;;;;;;;4.65;3.20;;;22.40;99.90;;;;;;4936574;29;20396;-65
2022/07/25 03:39:39;;;;;;;4.63;3.07;;;22.40;99.90;;;;;;4918054;29;20482;-65
2022/07/25 03:42:05;;;;;;;4.55;3.17;;;22.30;99.90;;;;;;4934425;29;20422;-65
2022/07/25 03:44:31;;;;;;;3.63;3.33;;;22.30;99.90;;;;;;4934348;29;20518;-65
2022/07/25 03:46:56;;;;;;;3.80;3.10;;;22.30;99.90;;;;;;4932514;29;20395;-65
2022/07/25 03:49:22;;;;;;;5.60;3.10;;;22.40;99.90;;;;;;4932029;29;20787;-65
2022/07/25 03:51:47;;;;;;;4.87;3.20;;;22.30;99.90;;;;;;4913904;29;20422;-65
2022/07/25 03:54:13;;;;;;;3.55;3.17;;;22.30;99.90;;;;;;4930455;29;20880;-65
2022/07/25 03:56:41;;;;;;;4.40;2.87;;;22.30;99.90;;;;;;4913156;29;20436;-65
2022/07/25 03:59:08;;;;;;;4.00;2.88;;;22.30;99.90;;;;;;4913784;29;20411;-67
2022/07/25 04:01:34;;;;;;;3.73;2.90;;;22.30;99.90;;;;;;4912550;29;20665;-67
2022/07/25 04:04:01;;;;;;;3.70;2.83;;;22.30;99.90;;;;;;4912465;29;20400;-67
2022/07/25 04:06:27;;;;;;;2.75;2.55;;;22.30;99.90;;;;;;4929462;29;20691;-67
2022/07/25 04:08:53;;;;;;;3.45;2.88;;;22.40;99.90;;;;;;4929330;29;20813;-67
2022/07/25 04:11:19;;;;;;;5.75;2.75;;;22.40;99.90;;;;;;4914133;29;20471;-67
2022/07/25 04:13:44;;;;;;;3.10;2.80;;;22.30;99.90;;;;;;4917154;29;20400;-67
2022/07/25 04:16:11;;;;;;;6.13;3.00;;;22.30;99.90;;;;;;4915562;29;20407;-65
2022/07/25 04:18:37;;;;;;;4.70;2.93;;;22.30;99.90;;;;;;4932567;29;20406;-65
2022/07/25 04:21:03;;;;;;;3.60;2.70;;;22.30;99.90;;;;;;4914420;29;20609;-65
2022/07/25 04:23:30;;;;;;;4.45;2.90;;;22.30;99.90;;;;;;4929633;29;20486;-67
2022/07/25 04:25:56;;;;;;;5.47;3.10;;;22.30;99.90;;;;;;4931259;29;20416;-67
2022/07/25 04:28:22;;;;;;;4.13;2.90;;;22.30;99.90;;;;;;4914142;29;20388;-67
2022/07/25 04:30:49;;;;;;;4.13;2.80;;;22.30;99.90;;;;;;4928403;29;20399;-67
2022/07/25 04:33:14;;;;;;;3.97;2.90;;;22.30;99.90;;;;;;4913002;29;20387;-67
2022/07/25 04:35:40;;;;;;;4.10;2.83;;;22.30;99.90;;;;;;4912090;29;20419;-67
2022/07/25 04:38:05;;;;;;;2.90;2.60;;;22.30;99.90;;;;;;4912609;29;20759;-67
2022/07/25 04:40:31;;;;;;;3.80;2.90;;;22.40;99.90;;;;;;4912872;29;20467;-67
2022/07/25 04:42:57;;;;;;;3.67;2.70;;;22.40;99.90;;;;;;4931370;29;20411;-67
2022/07/25 04:45:22;;;;;;;5.50;2.85;;;22.40;99.90;;;;;;4929156;29;20442;-65
2022/07/25 04:47:48;;;;;;;3.90;2.70;;;22.40;99.90;;;;;;4911578;29;20395;-65
2022/07/25 04:50:14;;;;;;;3.67;2.92;;;22.40;99.90;;;;;;4930679;29;20530;-65
2022/07/25 04:52:40;;;;;;;3.35;3.05;;;22.30;99.90;;;;;;4930425;29;20473;-65
2022/07/25 04:55:06;;;;;;;3.17;2.60;;;22.40;99.90;;;;;;4911365;29;20610;-65
2022/07/25 04:57:32;;;;;;;5.80;2.85;;;22.40;99.90;;;;;;4927030;29;20459;-65
2022/07/25 04:59:57;;;;;;;3.40;2.70;;;22.40;99.90;;;;;;4910589;29;20407;-65
2022/07/25 05:02:24;;;;;;;3.87;2.70;;;22.40;99.90;;;;;;4911243;29;20446;-67
2022/07/25 05:04:50;;;;;;;3.75;2.70;;;22.40;99.90;;;;;;4909559;29;20545;-65
2022/07/25 05:07:15;;;;;;;3.58;2.67;;;22.50;99.90;;;;;;4925922;29;20467;-65
2022/07/25 05:09:41;;;;;;;7.07;3.10;;;22.50;99.90;;;;;;4909555;29;20509;-65
2022/07/25 05:12:07;;;;;;;8.57;2.80;;;22.40;99.90;;;;;;4929518;29;20404;-65
2022/07/25 05:14:33;;;;;;;3.58;2.63;;;22.40;99.90;;;;;;4929291;29;20395;-65
2022/07/25 05:16:58;;;;;;;4.70;2.43;;;22.40;99.90;;;;;;4929162;29;20498;-67
2022/07/25 05:19:24;;;;;;;3.70;3.05;;;22.40;99.90;;;;;;4913515;29;20408;-65
2022/07/25 05:21:49;;;;;;;4.67;2.90;;;22.40;99.90;;;;;;4928434;29;20449;-65
2022/07/25 05:24:15;;;;;;;2.70;2.25;;;22.40;99.90;;;;;;4910345;29;20823;-65
2022/07/25 05:26:40;;;;;;;4.80;2.90;;;22.40;99.90;;;;;;4910970;29;20527;-65
2022/07/25 05:29:06;;;;;;;3.08;2.80;;;22.40;99.90;;;;;;4927309;29;20474;-65
2022/07/25 05:31:31;;;;;;;4.93;2.60;;;22.40;99.90;;;;;;4908441;29;20450;-65
2022/07/25 05:33:57;;;;;;;2.88;2.60;;;22.50;99.90;;;;;;4907108;29;20654;-67
2022/07/25 05:36:22;;;;;;;3.83;2.73;;;22.50;99.90;;;;;;4924956;29;20465;-67
2022/07/25 05:38:48;;;;;;;4.70;2.45;;;22.50;99.90;;;;;;4909168;29;20422;-67
2022/07/25 05:41:14;;;;;;;3.20;2.60;;;22.60;99.90;;;;;;4910459;29;20811;-67
2022/07/25 05:43:44;;;;;;;4.90;2.80;;;22.60;99.90;;;;;;4912384;29;20395;-67
2022/07/25 05:46:10;;;;;;;4.65;2.65;;;22.60;99.90;;;;;;4929407;29;20471;-67
2022/07/25 05:48:36;;;;;;;4.73;3.00;;;22.60;99.90;;;;;;4932671;29;20427;-65
2022/07/25 05:51:01;;;;;;;5.82;3.00;;;22.60;99.90;;;;;;4933347;29;20788;-65
2022/07/25 05:53:27;;;;;;;4.43;2.93;;;22.70;99.90;;;;;;4917271;29;20463;-65
2022/07/25 05:55:53;;;;;;;7.28;3.00;;;22.70;99.90;;;;;;4916335;29;20822;-65
2022/07/25 05:58:18;;;;;;;5.18;3.13;;;22.80;99.90;;;;;;4914715;29;20395;-65
2022/07/25 06:00:44;;;;;;;8.27;3.00;;;22.70;99.90;;;;;;4912998;29;20496;-67
2022/07/25 06:03:10;;;;;;;3.13;2.60;;;22.70;99.90;;;;;;4910269;29;20399;-67
2022/07/25 06:05:35;;;;;;;5.38;2.78;;;22.80;99.90;;;;;;4909778;29;20427;-64
2022/07/25 06:08:01;;;;;;;3.50;2.73;;;22.80;99.90;;;;;;4911798;29;20673;-67
2022/07/25 06:10:26;;;;;;;5.45;3.03;;;22.90;99.90;;;;;;4927476;29;20629;-67
2022/07/25 06:12:52;;;;;;;4.23;2.87;;;22.90;99.90;;;;;;4924020;29;20478;-67
2022/07/25 06:15:17;;;;;;;4.70;2.80;;;22.90;99.90;;;;;;4907957;29;20400;-67
2022/07/25 06:17:46;;;;;;;3.00;2.70;;;22.90;99.90;;;;;;4927933;29;20407;-67
2022/07/25 06:20:11;;;;;;;5.53;3.10;;;23.00;99.90;;;;;;4911378;29;20419;-67
2022/07/25 06:22:37;;;;;;;3.50;2.80;;;23.10;99.90;;;;;;4911270;29;20589;-67
2022/07/25 06:25:03;;;;;;;4.10;2.53;;;23.20;99.90;;;;;;4911187;29;20453;-67
2022/07/25 06:27:29;;;;;;;4.38;3.03;;;23.30;99.90;;;;;;4912188;29;20386;-67
2022/07/25 06:29:54;;;;;;;6.90;2.90;;;23.30;99.90;;;;;;4909695;29;20549;-67
2022/07/25 06:32:20;;;;;;;3.58;3.00;;;23.30;99.90;;;;;;4908751;29;20814;-67
2022/07/25 06:34:45;;;;;;;4.23;2.73;;;23.40;99.90;;;;;;4909499;29;20530;-67
2022/07/25 06:37:11;;;;;;;4.35;3.00;;;23.40;99.90;;;;;;4910324;29;20403;-67
2022/07/25 06:39:36;;;;;;;3.53;2.60;;;23.50;99.90;;;;;;4924945;29;20411;-67
2022/07/25 06:42:03;;;;;;;7.38;3.42;;;23.60;99.90;;;;;;4905580;29;20399;-67
2022/07/25 06:44:32;;;;;;;4.32;3.05;;;23.60;99.90;;;;;;4904445;29;20632;-67
2022/07/25 06:46:59;;;;;;;3.63;2.83;;;23.60;99.90;;;;;;4904487;29;20650;-67
2022/07/25 06:49:24;;;;;;;4.53;3.38;;;23.70;99.90;;;;;;4906201;29;21038;-67
2022/07/25 06:51:50;;;;;;;3.40;2.90;;;23.80;99.90;;;;;;4905763;29;20863;-67
2022/07/25 06:54:17;;;;;;;6.97;3.00;;;23.80;99.90;;;;;;4922804;29;20404;-67
2022/07/25 06:56:43;;;;;;;5.10;3.08;;;23.90;99.90;;;;;;4904544;29;20797;-67
2022/07/25 06:59:08;;;;;;;3.70;3.20;;;23.90;99.90;;;;;;4905400;29;20395;-67
2022/07/25 07:01:34;;;;;;;4.60;3.00;;;23.90;99.90;;;;;;4906588;29;20791;-67
2022/07/25 07:04:00;;;;;;;4.68;2.83;;;23.90;99.90;;;;;;4907007;29;20827;-67
2022/07/25 07:06:25;;;;;;;4.15;3.00;;;23.90;99.90;;;;;;4906219;29;20419;-67
2022/07/25 07:08:51;;;;;;;7.00;3.40;;;24.00;99.90;;;;;;4922462;29;20441;-67
2022/07/25 07:11:17;;;;;;;4.00;3.00;;;24.00;99.90;;;;;;4905266;29;20400;-67
2022/07/25 07:13:42;;;;;;;3.90;2.97;;;24.10;99.90;;;;;;4905766;29;20391;-67
2022/07/25 07:16:08;;;;;;;4.47;3.17;;;24.10;99.90;;;;;;4905535;29;20407;-67
2022/07/25 07:18:33;;;;;;;3.90;3.22;;;24.20;99.90;;;;;;4904004;29;20677;-67
2022/07/25 07:20:59;;;;;;;3.90;2.83;;;24.30;99.90;;;;;;4902102;29;20529;-67
2022/07/25 07:23:25;;;;;;;4.25;2.60;;;24.30;99.90;;;;;;4903042;29;20438;-67
2022/07/25 07:25:50;;;;;;;4.10;3.30;;;24.40;99.90;;;;;;4903950;29;20421;-67
2022/07/25 07:28:16;;;;;;;3.75;2.85;;;24.50;99.90;;;;;;4904839;29;20407;-67
2022/07/25 07:30:42;;;;;;;5.80;3.50;;;24.50;99.90;;;;;;4919784;29;20675;-67
2022/07/25 07:33:08;;;;;;;9.83;3.20;;;24.50;99.90;;;;;;4900463;29;20482;-67
2022/07/25 07:35:33;;;;;;;8.53;3.47;;;24.60;99.90;;;;;;4902234;29;20399;-67
2022/07/25 07:37:59;;;;;;;5.67;3.50;;;24.70;99.90;;;;;;4915673;29;20532;-67
2022/07/25 07:40:25;;;;;;;3.63;3.30;;;24.70;99.90;;;;;;4899369;29;20468;-67
2022/07/25 07:42:51;;;;;;;4.67;3.23;;;24.80;99.90;;;;;;4901249;29;20431;-67
2022/07/25 07:45:22;;;;;;;4.13;3.37;;;24.80;99.90;;;;;;4900698;29;20608;-67
2022/07/25 07:47:50;;;;;;;3.97;3.50;;;24.90;99.90;;;;;;4900354;29;20391;-67
2022/07/25 07:50:18;;;;;;;4.65;3.40;;;25.00;99.90;;;;;;4900906;29;20736;-67
2022/07/25 07:52:45;;;;;;;8.55;3.67;;;25.10;99.90;;;;;;4920119;29;20387;-67
2022/07/25 07:57:56;;;;;;;4.13;3.58;;;25.30;99.90;;;;;;4921643;29;20954;-67
2022/07/25 08:00:22;;;;;;;5.37;3.57;;;25.30;99.90;;;;;;4901888;29;20700;-67
2022/07/25 08:02:52;;;;;;;5.03;3.67;;;25.40;99.90;;;;;;4903821;29;20634;-67
2022/07/25 08:05:22;;;;;;;5.25;3.90;;;25.50;99.90;;;;;;4905205;29;20997;-67
2022/07/25 08:07:50;;;;;;;5.85;4.10;;;25.60;99.90;;;;;;4902640;29;20390;-67
2022/07/25 08:10:20;;;;;;;4.85;3.70;;;25.70;99.90;;;;;;4920122;29;20655;-67
2022/07/25 08:12:46;;;;;;;5.47;4.20;;;25.80;99.90;;;;;;4901569;29;20392;-67
2022/07/25 08:15:11;;;;;;;7.60;4.20;;;25.80;99.90;;;;;;4901540;29;20411;-67
2022/07/25 08:17:37;;;;;;;5.45;3.92;;;25.90;99.90;;;;;;4905161;29;20534;-67
2022/07/25 08:20:07;;;;;;;5.93;3.83;;;26.00;99.90;;;;;;4903867;29;20410;-67
2022/07/25 08:22:41;;;;;;;4.95;4.10;;;26.00;99.90;;;;;;4906147;29;20803;-68
2022/07/25 08:25:08;;;;;;;4.78;3.83;;;26.10;99.90;;;;;;4905433;29;20422;-67
2022/07/25 08:27:35;;;;;;;5.93;4.20;;;26.20;99.90;;;;;;4904909;29;20392;-68
2022/07/25 08:30:01;;;;;;;5.87;4.33;;;26.20;99.90;;;;;;4904694;29;20387;-67
2022/07/25 08:32:27;;;;;;;6.80;4.38;;;26.30;99.90;;;;;;4904762;29;20924;-68
2022/07/25 08:34:53;;;;;;;6.65;4.45;;;26.30;99.90;;;;;;4922318;29;20407;-67
2022/07/25 08:37:19;;;;;;;5.47;4.22;;;26.40;99.90;;;;;;4902646;29;20713;-67
2022/07/25 08:39:44;;;;;;;8.23;4.80;;;26.50;99.90;;;;;;4902383;29;20824;-67
2022/07/25 08:42:10;;;;;;;9.27;4.73;;;26.60;99.90;;;;;;4918282;29;20398;-67
2022/07/25 08:44:39;;;;;;;5.63;4.20;;;26.70;99.90;;;;;;4901894;29;20427;-67
2022/07/25 08:47:07;;;;;;;5.15;4.35;;;26.70;99.90;;;;;;4901059;29;20984;-67
2022/07/25 08:49:34;;;;;;;6.00;4.53;;;26.90;99.90;;;;;;4899336;29;20395;-67
2022/07/25 08:52:01;;;;;;;7.78;4.60;;;27.00;99.90;;;;;;4902383;29;20384;-67
2022/07/25 08:54:27;;;;;;;7.63;4.57;;;27.10;99.90;;;;;;4903451;29;20526;-67
2022/07/25 08:56:52;;;;;;;7.78;4.80;;;27.20;99.90;;;;;;4903397;29;20400;-67
2022/07/25 08:59:18;;;;;;;4.80;4.40;;;27.20;99.90;;;;;;4902818;29;20391;-67
2022/07/25 09:01:44;;;;;;;4.78;4.28;;;27.30;99.90;;;;;;4903841;29;20891;-67
2022/07/25 09:04:09;;;;;;;6.43;4.90;;;27.40;99.90;;;;;;4903505;29;20391;-67
2022/07/25 09:06:36;;;;;;;5.88;4.50;;;27.40;99.90;;;;;;4920405;29;20474;-68
2022/07/25 09:09:07;;;;;;;6.57;4.40;;;27.50;99.90;;;;;;4920806;29;20713;-67
2022/07/25 09:11:35;;;;;;;5.13;4.63;;;27.60;99.90;;;;;;4903981;29;20823;-67
2022/07/25 09:14:06;;;;;;;5.60;4.68;;;27.70;99.90;;;;;;4900692;29;20503;-67
2022/07/25 09:16:34;;;;;;;5.87;4.63;;;27.80;99.90;;;;;;4899407;29;20696;-67
2022/07/25 09:19:19;;;;;;;4.93;4.45;;;27.80;99.90;;;;;;4900483;29;20394;-67
2022/07/25 09:21:58;;;;;;;5.15;4.43;;;27.90;99.90;;;;;;4897303;29;20600;-67
2022/07/25 09:24:24;;;;;;;8.52;4.88;;;28.00;99.90;;;;;;4896818;29;20461;-68
2022/07/25 09:26:52;;;;;;;6.20;4.80;;;28.10;99.90;;;;;;4915501;29;20497;-67
2022/07/25 09:29:25;;;;;;;5.27;4.77;;;28.20;99.90;;;;;;4899174;29;20588;-67
2022/07/25 09:31:52;;;;;;;7.50;5.15;;;28.20;99.90;;;;;;4899753;29;20395;-67
2022/07/25 09:34:37;;;;;;;5.90;4.50;;;28.30;99.90;;;;;;4915621;29;20552;-67
2022/07/25 09:37:04;;;;;;;6.40;4.95;;;28.40;99.90;;;;;;4900366;29;20632;-68
2022/07/25 09:39:39;;;;;;;7.13;4.88;;;28.40;99.90;;;;;;4918961;29;20681;-65
2022/07/25 09:42:25;;;;;;;7.03;5.00;;;28.50;99.90;;;;;;4917261;29;20399;-65
2022/07/25 09:45:05;;;;;;;6.45;5.10;;;28.50;99.90;;;;;;4902567;29;20511;-65
2022/07/25 09:47:34;;;;;;;5.55;5.03;;;28.60;99.90;;;;;;4902344;29;20435;-68
2022/07/25 09:50:00;;;;;;;7.53;5.30;;;28.70;99.90;;;;;;4920414;29;20392;-68
2022/07/25 09:52:26;;;;;;;7.63;5.00;;;28.90;99.90;;;;;;4904748;29;20390;-68
2022/07/25 09:54:53;;;;;;;5.23;4.73;;;28.90;99.90;;;;;;4906285;29;20732;-68
2022/07/25 09:57:20;;;;;;;5.68;5.18;;;29.00;99.90;;;;;;4905898;29;20438;-68
2022/07/25 09:59:46;;;;;;;5.80;4.70;;;29.20;99.90;;;;;;4906824;29;20748;-67
2022/07/25 10:02:31;;;;;;;6.27;5.20;;;29.20;99.90;;;;;;4906841;29;20916;-68
2022/07/25 10:05:19;;;;;;;5.85;4.63;;;29.30;99.90;;;;;;4902398;29;20426;-68
2022/07/25 10:07:48;;;;;;;5.57;4.93;;;29.40;99.90;;;;;;4918873;29;20464;-68
2022/07/25 10:10:31;;;;;;;7.00;5.00;;;29.50;99.90;;;;;;4901613;29;20699;-67
2022/07/25 10:13:06;;;;;;;6.37;4.97;;;29.50;99.90;;;;;;4901103;29;20582;-68
2022/07/25 10:15:47;;;;;;;7.07;4.78;;;29.50;99.90;;;;;;4918730;29;20395;-67
2022/07/25 10:18:15;;;;;;;6.47;4.63;;;29.60;99.90;;;;;;4917157;29;20478;-68
2022/07/25 10:20:43;;;;;;;6.73;4.80;;;29.70;99.90;;;;;;4901609;29;20511;-68
2022/07/25 10:23:26;;;;;;;7.03;4.60;;;29.70;99.90;;;;;;4901299;29;20739;-68
2022/07/25 10:26:19;;;;;;;5.40;4.85;;;29.70;99.90;;;;;;4919223;29;20562;-68
2022/07/25 10:28:50;;;;;;;6.00;4.93;;;29.80;99.90;;;;;;4901559;29;20396;-68
2022/07/25 10:31:45;;;;;;;6.60;4.90;;;29.70;99.90;;;;;;4903598;29;20383;-68
2022/07/25 10:34:14;;;;;;;6.80;4.38;;;29.80;99.90;;;;;;4887550;29;20499;-68
2022/07/25 10:36:51;;;;;;;9.73;4.72;;;29.80;99.90;;;;;;4927648;29;20400;-68
2022/07/25 10:39:18;;;;;;;8.60;5.13;;;29.70;99.90;;;;;;4912842;29;20399;-68
2022/07/25 10:41:51;;;;;;;6.85;4.38;;;29.90;99.90;;;;;;4926649;29;20558;-67
2022/07/25 10:44:17;;;;;;;7.05;4.47;;;29.90;99.90;;;;;;4925908;29;20652;-67
2022/07/25 10:46:43;;;;;;;6.57;4.90;;;29.90;99.90;;;;;;4909818;29;20391;-67
2022/07/25 10:49:18;;;;;;;5.20;4.70;;;29.90;99.90;;;;;;4927174;29;20415;-68
2022/07/25 10:51:55;;;;;;;5.50;4.60;;;29.90;99.90;;;;;;4908233;29;20391;-68
2022/07/25 10:54:21;;;;;;;5.63;4.68;;;29.90;99.90;;;;;;4908896;29;20526;-68
2022/07/25 10:56:58;;;;;;;6.13;4.88;;;29.90;99.90;;;;;;4909239;29;20395;-68
2022/07/25 10:59:37;;;;;;;5.65;4.72;;;29.90;99.90;;;;;;4902983;29;20793;-68
2022/07/25 11:02:06;;;;;;;5.82;4.90;;;30.00;99.90;;;;;;4902714;29;20399;-68
2022/07/25 11:04:32;;;;;;;5.47;4.65;;;30.00;99.90;;;;;;4898422;29;20597;-67
2022/07/25 11:07:10;;;;;;;7.80;4.80;;;30.00;99.90;;;;;;4895943;29;20945;-68
2022/07/25 11:09:36;;;;;;;5.32;4.45;;;30.10;99.90;;;;;;4894531;29;20419;-68
2022/07/25 11:12:02;;;;;;;8.87;4.87;;;30.00;99.90;;;;;;4893829;29;20399;-67
2022/07/25 11:14:36;;;;;;;10.53;4.97;;;30.10;99.90;;;;;;4913794;29;20857;-68
2022/07/25 11:17:18;;;;;;;5.80;4.90;;;30.00;99.90;;;;;;4909748;29;20387;-68
2022/07/25 11:19:55;;;;;;;7.80;4.97;;;29.90;99.90;;;;;;4891732;29;20420;-68
2022/07/25 11:22:22;;;;;;;6.03;5.03;;;30.00;99.90;;;;;;4911207;29;20425;-68
2022/07/25 11:24:47;;;;;;;5.38;4.93;;;30.00;99.90;;;;;;4894534;29;20434;-67
2022/07/25 11:27:26;;;;;;;13.70;4.60;;;30.00;99.90;;;;;;4913207;29;20541;-68
2022/07/25 11:29:52;;;;;;;6.07;4.25;;;30.00;99.90;;;;;;4914779;29;20692;-67
2022/07/25 11:32:39;;;;;;;5.43;4.90;;;30.10;99.90;;;;;;5084147;27;20828;-67
2022/07/25 11:35:05;;;;;;;5.30;4.80;;;30.10;99.90;;;;;;5083157;28;20385;-67
2022/07/25 11:37:34;;;;;;;7.30;4.88;;;30.10;99.90;;;;;;5084491;28;20970;-67
2022/07/25 11:40:00;;;;;;;5.00;4.47;;;30.20;99.90;;;;;;5090982;28;20809;-67
2022/07/25 11:42:27;;;;;;;7.82;5.20;;;30.30;99.90;;;;;;5089717;28;20947;-67
2022/07/25 11:44:53;;;;;;;5.93;4.60;;;30.30;99.90;;;;;;5090037;28;20385;-67
2022/07/25 11:47:26;;;;;;;6.78;5.13;;;30.40;99.90;;;;;;5090144;28;20453;-67
2022/07/25 11:49:53;;;;;;;6.65;5.20;;;30.60;99.90;;;;;;5093821;28;20378;-68
2022/07/25 11:52:23;;;;;;;5.78;5.18;;;30.70;99.90;;;;;;5093467;28;21057;-67
2022/07/25 11:54:50;;;;;;;6.53;5.13;;;30.70;99.90;;;;;;5096449;28;20632;-67
2022/07/25 11:57:21;;;;;;;5.53;4.90;;;30.70;99.90;;;;;;5096174;28;20644;-68
2022/07/25 11:59:46;;;;;;;7.00;5.10;;;30.80;99.90;;;;;;5095140;28;20384;-68
2022/07/25 12:02:29;;;;;;;6.32;4.90;;;31.10;99.90;;;;;;5094993;28;20405;-68
2022/07/25 12:04:57;;;;;;;5.38;4.88;;;31.40;99.90;;;;;;5095597;28;20717;-68
2022/07/25 12:07:34;;;;;;;8.02;4.90;;;31.60;99.90;;;;;;5093561;28;20381;-68
2022/07/25 12:09:59;;;;;;;6.32;4.80;;;31.70;99.90;;;;;;5093029;28;20417;-68
2022/07/25 12:12:25;;;;;;;5.00;4.50;;;31.90;99.90;;;;;;5093609;28;20528;-68
2022/07/25 12:14:51;;;;;;;8.38;4.93;;;31.80;99.70;;;;;;5089755;28;20386;-67
2022/07/25 12:17:17;;;;;;;6.80;4.97;;;31.60;99.60;;;;;;5093065;28;20848;-68
2022/07/25 12:19:46;;;;;;;5.88;4.43;;;31.80;99.60;;;;;;5091354;28;20381;-68
2022/07/25 12:22:11;;;;;;;5.20;4.40;;;31.90;98.80;;;;;;5090089;28;20781;-68
2022/07/25 12:24:37;;;;;;;4.65;4.25;;;32.10;98.50;;;;;;5086686;28;20623;-68
2022/07/25 12:27:02;;;;;;;6.07;4.83;;;32.20;98.30;;;;;;5081384;28;20484;-68
2022/07/25 12:29:28;;;;;;;6.35;4.68;;;32.10;97.90;;;;;;5083543;28;20377;-67
2022/07/25 12:31:54;;;;;;;5.60;4.80;;;32.10;98.00;;;;;;5083967;28;20453;-68
2022/07/25 12:34:19;;;;;;;5.83;4.40;;;32.00;98.40;;;;;;5086592;28;20666;-68
2022/07/25 12:36:45;;;;;;;5.20;4.45;;;31.90;98.60;;;;;;5088143;28;20413;-68
2022/07/25 12:39:10;;;;;;;4.90;4.50;;;31.80;98.60;;;;;;5089802;28;20432;-67
2022/07/25 12:41:36;;;;;;;5.40;4.45;;;31.70;98.40;;;;;;5093062;28;20673;-68
2022/07/25 12:44:03;;;;;;;4.70;4.20;;;31.60;98.70;;;;;;5075704;28;21005;-68
2022/07/25 12:46:28;;;;;;;5.10;4.60;;;31.70;98.90;;;;;;5075596;28;20869;-68
2022/07/25 12:48:54;;;;;;;7.07;4.70;;;31.70;98.70;;;;;;5073358;28;20399;-66
2022/07/25 12:51:19;;;;;;;5.07;4.53;;;31.80;98.60;;;;;;5074765;28;20912;-65